Moab, UT

4:55 AM MDT on August 27, 2014 (GMT -0600)
Canon Vista | Change Station
CLOSE
Current Station
Personal Weather Station
Location: Moab, UT
Elevation: 4183 ft
Nearby Weather Stations
Active Advisory: Special Statement

Elev 4183 ft 38.56 °N, 109.53 °W | Updated 14 seconds ago

Overcast
Overcast
61.5 °F
Feels Like 61.5 °F
N
5.0
Wind Variable Wind from SE
Gusts 0.0 mph

Today
High -- | Low -- °F
--% Chance of Precip.
Yesterday
High -- | Low -- °F
Precip. -- in
6:42 AM 7:55 PM
Waxing Crescent, 3% visible
Pressure 30.18 in
Visibility 9.0 miles
Clouds Mostly Cloudy 3800 ft
Overcast 6000 ft
Dew Point 57 °F
Humidity 85%
Rainfall 0.07 in
Snow Depth Not available.
UV 0 out of 12
Pollen 8.80 out of 12
Air Quality Not available.
Flu Activity Not available.
SPECI KCNY 271037Z AUTO 19003KT 9SM TSRA BKN038 OVC060 17/13 A3018 RMK AO2 LTG DSNT SE AND S RAB30 TSB37 P0001 T01670128

More Conditions Fewer Conditions

Pressure 30.18 in
Visibility 9.0 miles
Clouds Mostly Cloudy 3800 ft
Overcast 6000 ft
Dew Point 57 °F
Humidity 85%
Rainfall 0.07 in
Snow Depth Not available.
UV 0 out of 12
Pollen 8.80 out of 12
Air Quality Not available.
Flu Activity Not available.
SPECI KCNY 271037Z AUTO 19003KT 9SM TSRA BKN038 OVC060 17/13 A3018 RMK AO2 LTG DSNT SE AND S RAB30 TSB37 P0001 T01670128

More Conditions Fewer Conditions

10-Day Weather Forecast

Almanac

Astronomy

Aug. 27, 2014 Rise Set
Actual Time 6:42 AM MDT 7:55 PM MDT
Civil Twilight 6:15 AM MDT 8:22 PM MDT
Nautical Twilight 5:42 AM MDT 8:55 PM MDT
Astronomical Twilight 5:08 AM MDT 9:29 PM MDT
Moon 8:40 AM MDT 8:51 PM MDT
Length of Visible Light 14h 07m
Length of Day
13h 12m
Tomorrow will be 2m 21s shorter.
Waxing Crescent, 3% of the Moon is Illuminated
Today
Waxing Crescent
Sep 2
First Quarter
Sep 8
Full
Sep 15
Last Quarter
Sep 24
New

Today's Extremes

State Highs State Lows

Community

WunderPhotos

Upload Photos

1,747,666 photos uploaded!

Nearby

Snow Depth

Station Depth Elevation
Lasal Mountain 0 in 9850 ft
Camp Jackson 0 in 8600 ft
Donkey Reservoir 1 in 9800 ft
Black Flat-U.M. Creek 0 in 9400 ft
Red Pine Ridge 0 in 9200 ft

Earthquake Activity

City Distance Mag. Time & Date
No recent earthquake activity has been reported nearby.
Minimum magnitude displayed is 2.5.

Coastal Water Temperatures

Place Temperature
No Stations Reporting

Nearby Weather Stations